createdAt,value
2023-01-10T00:01:46.973Z,3.47
2023-01-10T00:04:13.849Z,3.54
2023-01-10T00:06:40.644Z,3.58
2023-01-10T00:09:07.885Z,3.51
2023-01-10T00:11:52.850Z,3.47
2023-01-10T00:14:19.621Z,3.43
2023-01-10T00:16:46.528Z,3.26
2023-01-10T00:19:13.321Z,3.38
2023-01-10T00:21:40.107Z,3.30
2023-01-10T00:24:25.225Z,3.37
2023-01-10T00:26:52.183Z,3.34
2023-01-10T00:29:24.841Z,3.19
2023-01-10T00:31:51.930Z,3.15
2023-01-10T00:34:18.627Z,3.07
2023-01-10T00:36:47.909Z,3.18
2023-01-10T00:39:16.513Z,3.15
2023-01-10T00:42:01.798Z,2.98
2023-01-10T00:44:28.771Z,3.19
2023-01-10T00:46:55.458Z,3.09
2023-01-10T00:49:22.242Z,3.11
2023-01-10T00:51:49.202Z,2.92
2023-01-10T00:54:15.989Z,2.97
2023-01-10T00:56:42.649Z,2.90
2023-01-10T00:59:09.560Z,2.96
2023-01-10T01:01:36.257Z,2.97
2023-01-10T01:04:03.107Z,2.88
2023-01-10T01:06:29.818Z,2.92
2023-01-10T01:08:56.614Z,2.83
2023-01-10T01:11:23.285Z,3.02
2023-01-10T01:13:50.003Z,3.09
2023-01-10T01:16:17.038Z,3.06
2023-01-10T01:18:43.882Z,2.92
2023-01-10T01:21:10.616Z,2.94
2023-01-10T01:23:37.424Z,2.82
2023-01-10T01:26:05.757Z,2.83
2023-01-10T01:28:32.906Z,2.72
2023-01-10T01:30:59.739Z,2.81
2023-01-10T01:33:26.588Z,2.89
2023-01-10T01:35:53.436Z,2.81
2023-01-10T01:38:20.194Z,2.65
2023-01-10T01:40:46.858Z,2.58
2023-01-10T01:43:27.653Z,2.79
2023-01-10T01:45:55.643Z,2.82
2023-01-10T01:48:36.900Z,2.71
2023-01-10T01:51:07.709Z,2.69
2023-01-10T01:53:40.287Z,2.51
2023-01-10T01:56:13.397Z,2.56
2023-01-10T01:58:48.300Z,2.44
2023-01-10T02:01:16.507Z,2.40
2023-01-10T02:03:48.584Z,2.49
2023-01-10T02:06:19.056Z,2.62
2023-01-10T02:08:53.307Z,2.51
2023-01-10T02:11:20.303Z,2.57
2023-01-10T02:13:48.482Z,2.53
2023-01-10T02:16:15.755Z,2.34
2023-01-10T02:18:43.619Z,2.21
2023-01-10T02:21:28.709Z,2.20
2023-01-10T02:24:21.507Z,2.23
2023-01-10T02:27:00.383Z,2.29
2023-01-10T02:30:15.906Z,2.36
2023-01-10T02:33:05.468Z,2.40
2023-01-10T02:35:44.581Z,2.38
2023-01-10T02:38:17.031Z,2.34
2023-01-10T02:41:06.666Z,2.23
2023-01-10T02:43:42.806Z,2.24
2023-01-10T02:46:15.413Z,2.30
2023-01-10T02:48:42.186Z,2.40
2023-01-10T02:51:27.465Z,2.40
2023-01-10T02:54:00.556Z,2.44
2023-01-10T02:56:37.979Z,2.48
2023-01-10T02:59:23.306Z,2.37
2023-01-10T03:02:27.408Z,2.35
2023-01-10T03:05:20.808Z,2.35
2023-01-10T03:08:01.441Z,2.32
2023-01-10T03:10:37.683Z,2.40
2023-01-10T03:13:16.510Z,2.37
2023-01-10T03:15:45.990Z,2.40
2023-01-10T03:18:18.222Z,2.39
2023-01-10T03:20:47.835Z,2.43
2023-01-10T03:23:16.701Z,2.32
2023-01-10T03:25:44.725Z,2.42
2023-01-10T03:28:44.092Z,2.53
2023-01-10T03:31:16.919Z,2.51
2023-01-10T03:33:43.891Z,2.57
2023-01-10T03:36:31.980Z,2.65
2023-01-10T03:39:14.498Z,2.66
2023-01-10T03:41:49.297Z,2.70
2023-01-10T03:44:39.894Z,2.73
2023-01-10T03:47:21.794Z,2.69
2023-01-10T03:49:53.698Z,2.69
2023-01-10T03:52:21.455Z,2.60
2023-01-10T03:54:48.491Z,2.59
2023-01-10T03:57:18.124Z,2.60
2023-01-10T03:59:45.247Z,2.53
2023-01-10T04:02:12.768Z,2.53
2023-01-10T04:04:39.643Z,2.34
2023-01-10T04:07:07.124Z,2.33
2023-01-10T04:09:33.957Z,2.38
2023-01-10T04:12:00.756Z,2.17
2023-01-10T04:14:27.871Z,2.38
2023-01-10T04:16:55.190Z,2.30
2023-01-10T04:19:21.908Z,2.38
2023-01-10T04:21:48.632Z,2.45
2023-01-10T04:24:15.375Z,2.54
2023-01-10T04:26:42.051Z,2.63
2023-01-10T04:29:08.777Z,2.57
2023-01-10T04:31:35.661Z,2.56
2023-01-10T04:34:02.478Z,2.55
2023-01-10T04:36:29.359Z,2.70
2023-01-10T04:38:56.153Z,2.62
2023-01-10T04:41:22.822Z,2.56
2023-01-10T04:43:49.935Z,2.61
2023-01-10T04:46:17.252Z,2.65
2023-01-10T04:48:44.181Z,3.15
2023-01-10T04:51:11.085Z,3.38
2023-01-10T04:53:38.232Z,3.55
2023-01-10T04:56:06.812Z,3.62
2023-01-10T04:58:35.604Z,3.59
2023-01-10T05:01:10.457Z,3.48
2023-01-10T05:03:37.619Z,3.44
2023-01-10T05:06:05.526Z,3.44
2023-01-10T05:08:32.294Z,3.77
2023-01-10T05:10:59.162Z,4.39
2023-01-10T05:13:26.473Z,4.70
2023-01-10T05:15:58.111Z,5.03
2023-01-10T05:18:26.389Z,5.43
2023-01-10T05:20:53.297Z,5.52
2023-01-10T05:23:20.052Z,5.30
2023-01-10T05:25:46.720Z,5.38
2023-01-10T05:28:13.435Z,5.29
2023-01-10T05:30:40.125Z,5.03
2023-01-10T05:33:06.930Z,4.91
2023-01-10T05:35:34.148Z,4.86
2023-01-10T05:38:00.786Z,4.66
2023-01-10T05:40:27.461Z,4.54
2023-01-10T05:42:54.143Z,4.24
2023-01-10T05:45:21.145Z,4.15
2023-01-10T05:47:48.083Z,4.04
2023-01-10T05:50:15.180Z,3.73
2023-01-10T05:52:41.893Z,3.83
2023-01-10T05:55:08.680Z,3.62
2023-01-10T05:57:35.441Z,3.52
2023-01-10T06:00:04.938Z,3.38
2023-01-10T06:02:38.350Z,3.28
2023-01-10T06:05:05.550Z,3.33
2023-01-10T06:07:32.295Z,3.21
2023-01-10T06:09:59.172Z,3.23
2023-01-10T06:12:25.913Z,3.27
2023-01-10T06:14:52.656Z,3.36
2023-01-10T06:17:19.384Z,3.34
2023-01-10T06:19:46.086Z,3.26
2023-01-10T06:22:12.736Z,3.19
2023-01-10T06:24:39.467Z,3.02
2023-01-10T06:27:06.208Z,2.97
2023-01-10T06:29:33.047Z,3.06
2023-01-10T06:32:00.329Z,3.13
2023-01-10T06:34:27.026Z,3.24
2023-01-10T06:36:53.665Z,3.34
2023-01-10T06:39:20.405Z,3.36
2023-01-10T06:41:47.067Z,3.34
2023-01-10T06:44:13.977Z,3.30
2023-01-10T06:46:40.773Z,3.17
2023-01-10T06:49:07.638Z,3.02
2023-01-10T06:51:34.574Z,2.98
2023-01-10T06:54:01.365Z,2.66
2023-01-10T06:56:28.038Z,2.83
2023-01-10T06:58:54.799Z,2.76
2023-01-10T07:01:22.104Z,2.84
2023-01-10T07:03:49.145Z,2.84
2023-01-10T07:06:16.631Z,2.78
2023-01-10T07:08:45.936Z,2.83
2023-01-10T07:11:14.852Z,2.60
2023-01-10T07:13:41.674Z,2.77
2023-01-10T07:16:13.332Z,2.84
2023-01-10T07:18:41.805Z,2.66
2023-01-10T07:21:09.500Z,2.80
2023-01-10T07:23:36.343Z,2.85
2023-01-10T07:26:06.234Z,2.72
2023-01-10T07:28:36.501Z,2.67
2023-01-10T07:31:05.803Z,2.77
2023-01-10T07:33:32.599Z,2.77
2023-01-10T07:36:01.232Z,2.82
2023-01-10T07:38:28.344Z,2.69
2023-01-10T07:40:55.152Z,2.80
2023-01-10T07:43:21.854Z,2.78
2023-01-10T07:45:48.597Z,2.72
2023-01-10T07:48:15.262Z,2.72
2023-01-10T07:50:42.118Z,2.75
2023-01-10T07:53:09.736Z,2.72
2023-01-10T07:55:39.395Z,2.79
2023-01-10T07:58:08.143Z,2.57
2023-01-10T08:00:35.424Z,2.63
2023-01-10T08:03:02.366Z,2.48
2023-01-10T08:05:29.353Z,2.38
2023-01-10T08:08:00.028Z,2.54
2023-01-10T08:10:27.322Z,2.48
2023-01-10T08:12:53.980Z,2.54
2023-01-10T08:15:20.801Z,2.55
2023-01-10T08:17:47.591Z,2.58
2023-01-10T08:20:14.618Z,2.68
2023-01-10T08:22:41.245Z,2.62
2023-01-10T08:25:08.506Z,2.75
2023-01-10T08:27:35.215Z,2.72
2023-01-10T08:30:02.091Z,2.84
2023-01-10T08:32:28.810Z,2.88
2023-01-10T08:34:55.669Z,3.10
2023-01-10T08:37:22.262Z,3.45
2023-01-10T08:39:48.985Z,3.72
2023-01-10T08:42:17.012Z,3.94
2023-01-10T08:44:43.826Z,4.06
2023-01-10T08:47:10.582Z,4.58
2023-01-10T08:49:37.331Z,4.79
2023-01-10T08:52:04.072Z,4.86
2023-01-10T08:54:31.057Z,5.09
2023-01-10T08:56:57.883Z,5.34
2023-01-10T08:59:24.884Z,5.59
2023-01-10T09:01:51.676Z,5.73
2023-01-10T09:04:18.544Z,5.83
2023-01-10T09:06:45.210Z,5.89
2023-01-10T09:09:11.935Z,6.13
2023-01-10T09:11:41.117Z,6.33
2023-01-10T09:14:08.405Z,6.56
2023-01-10T09:16:34.999Z,6.80
2023-01-10T09:19:01.792Z,6.92
2023-01-10T09:21:28.916Z,6.99
2023-01-10T09:23:55.681Z,7.04
2023-01-10T09:26:22.489Z,7.05
2023-01-10T09:28:49.383Z,7.20
2023-01-10T09:31:16.444Z,7.26
2023-01-10T09:33:47.297Z,7.21
2023-01-10T09:36:15.673Z,7.18
2023-01-10T09:38:42.843Z,7.27
2023-01-10T09:41:18.719Z,7.27
2023-01-10T09:44:15.335Z,7.35
2023-01-10T09:46:48.050Z,7.52
2023-01-10T09:49:34.419Z,7.55
2023-01-10T09:52:08.585Z,7.63
2023-01-10T09:54:41.542Z,7.76
2023-01-10T09:57:16.156Z,7.97
2023-01-10T09:59:43.123Z,7.83
2023-01-10T10:02:36.737Z,7.86
2023-01-10T10:05:16.686Z,7.84
2023-01-10T10:07:43.807Z,7.78
2023-01-10T10:10:22.051Z,7.78
2023-01-10T10:12:54.536Z,7.82
2023-01-10T10:15:48.474Z,7.85
2023-01-10T10:18:40.559Z,7.75
2023-01-10T10:21:13.099Z,8.27
2023-01-10T10:24:03.287Z,8.25
2023-01-10T10:26:34.461Z,8.16
2023-01-10T10:29:07.098Z,8.20
2023-01-10T10:31:39.729Z,8.17
2023-01-10T10:34:20.880Z,8.07
2023-01-10T10:36:51.097Z,8.09
2023-01-10T10:39:22.413Z,8.06
2023-01-10T10:41:52.766Z,8.26
2023-01-10T10:44:22.546Z,8.48
2023-01-10T10:46:49.564Z,8.43
2023-01-10T10:49:35.098Z,8.52
2023-01-10T10:52:03.992Z,8.67
2023-01-10T10:54:35.758Z,8.75
2023-01-10T10:57:03.038Z,8.79
2023-01-10T10:59:29.854Z,8.76
2023-01-10T11:01:56.738Z,8.73
2023-01-10T11:04:23.761Z,8.57
2023-01-10T11:06:50.942Z,8.64
2023-01-10T11:09:30.302Z,8.60
2023-01-10T11:11:59.241Z,8.65
2023-01-10T11:14:48.035Z,8.76
2023-01-10T11:17:19.452Z,8.77
2023-01-10T11:19:59.828Z,8.81
2023-01-10T11:22:39.691Z,8.81
2023-01-10T11:25:15.880Z,8.68
2023-01-10T11:27:58.229Z,8.71
2023-01-10T11:30:28.033Z,8.65
2023-01-10T11:32:58.135Z,8.66
2023-01-10T11:35:26.768Z,8.76
2023-01-10T11:38:01.020Z,8.86
2023-01-10T11:40:29.707Z,8.85
2023-01-10T11:42:59.507Z,8.88
2023-01-10T11:45:29.467Z,8.98
2023-01-10T11:48:02.591Z,8.99
2023-01-10T11:50:33.609Z,9.04
2023-01-10T11:53:00.515Z,9.07
2023-01-10T11:55:32.137Z,9.15
2023-01-10T11:58:01.875Z,9.23
2023-01-10T12:00:34.961Z,9.23
2023-01-10T12:03:02.069Z,9.17
2023-01-10T12:05:29.246Z,9.11
2023-01-10T12:07:56.383Z,9.15
2023-01-10T12:10:26.170Z,9.16
2023-01-10T12:12:58.845Z,9.04
2023-01-10T12:15:29.275Z,9.08
2023-01-10T12:17:58.921Z,9.09
2023-01-10T12:20:32.686Z,9.31
2023-01-10T12:23:11.300Z,9.29
2023-01-10T12:25:41.579Z,9.31
2023-01-10T12:28:28.665Z,9.23
2023-01-10T12:30:58.586Z,9.44
2023-01-10T12:33:30.179Z,9.39
2023-01-10T12:36:12.928Z,9.43
2023-01-10T12:39:05.486Z,9.42
2023-01-10T12:42:05.817Z,9.49
2023-01-10T12:44:41.643Z,9.49
2023-01-10T12:47:18.459Z,9.46
2023-01-10T12:50:14.056Z,9.35
2023-01-10T12:52:47.552Z,9.39
2023-01-10T12:55:16.298Z,9.40
2023-01-10T12:57:51.640Z,9.44
2023-01-10T13:00:29.504Z,9.57
2023-01-10T13:03:00.560Z,9.44
2023-01-10T13:05:29.635Z,9.39
2023-01-10T13:08:04.211Z,9.35
2023-01-10T13:10:31.541Z,9.47
2023-01-10T13:13:24.769Z,9.49
2023-01-10T13:15:57.431Z,9.54
2023-01-10T13:18:26.145Z,9.75
2023-01-10T13:21:13.515Z,9.59
2023-01-10T13:23:48.984Z,9.78
2023-01-10T13:26:16.163Z,9.81
2023-01-10T13:29:00.774Z,9.82
2023-01-10T13:31:35.202Z,9.79
2023-01-10T13:34:13.439Z,9.62
2023-01-10T13:36:54.006Z,9.79
2023-01-10T13:39:53.670Z,9.81
2023-01-10T13:42:53.822Z,9.62
2023-01-10T13:45:31.364Z,9.83
2023-01-10T13:48:00.775Z,9.82
2023-01-10T13:50:33.824Z,9.86
2023-01-10T13:53:12.715Z,9.98
2023-01-10T13:55:39.383Z,10.04
2023-01-10T13:58:17.954Z,10.08
2023-01-10T14:01:07.017Z,10.09
2023-01-10T14:03:55.229Z,10.14
2023-01-10T14:06:28.035Z,10.29
2023-01-10T14:09:03.763Z,10.32
2023-01-10T14:11:45.545Z,10.33
2023-01-10T14:14:38.095Z,10.37
2023-01-10T14:17:24.573Z,10.32
2023-01-10T14:20:17.418Z,10.27
2023-01-10T14:22:59.625Z,10.15
2023-01-10T14:25:28.372Z,10.34
2023-01-10T14:27:56.754Z,10.32
2023-01-10T14:30:35.327Z,10.40
2023-01-10T14:33:25.904Z,10.39
2023-01-10T14:35:58.411Z,10.31
2023-01-10T14:38:29.448Z,10.31
2023-01-10T14:41:02.871Z,10.36
2023-01-10T14:43:40.005Z,10.37
2023-01-10T14:46:14.359Z,10.34
2023-01-10T14:48:51.067Z,10.32
2023-01-10T14:51:26.237Z,10.31
2023-01-10T14:54:03.217Z,10.29
2023-01-10T14:56:37.675Z,10.15
2023-01-10T14:59:22.974Z,10.06
2023-01-10T15:01:51.805Z,9.96
2023-01-10T15:04:20.663Z,9.95
2023-01-10T15:06:55.859Z,9.93
2023-01-10T15:09:22.628Z,9.94
2023-01-10T15:11:50.648Z,9.87
2023-01-10T15:14:20.319Z,9.78
2023-01-10T15:16:48.296Z,9.74
2023-01-10T15:19:22.205Z,9.61
2023-01-10T15:21:49.661Z,9.65
2023-01-10T15:24:33.166Z,9.54
2023-01-10T15:27:06.014Z,9.37
2023-01-10T15:29:33.589Z,9.34
2023-01-10T15:32:38.282Z,9.29
2023-01-10T15:35:08.958Z,9.16
2023-01-10T15:37:40.849Z,9.13
2023-01-10T15:40:21.737Z,9.13
2023-01-10T15:42:48.540Z,9.10
2023-01-10T15:45:30.995Z,9.08
2023-01-10T15:48:03.769Z,8.98
2023-01-10T15:50:40.294Z,8.93
2023-01-10T15:53:10.206Z,8.87
2023-01-10T15:55:47.633Z,8.82
2023-01-10T15:58:30.748Z,8.78
2023-01-10T16:01:00.048Z,8.68
2023-01-10T16:03:52.133Z,8.59
2023-01-10T16:06:29.966Z,8.41
2023-01-10T16:08:59.732Z,8.21
2023-01-10T16:11:58.802Z,8.07
2023-01-10T16:14:25.880Z,7.96
2023-01-10T16:16:52.605Z,7.80
2023-01-10T16:19:19.449Z,7.67
2023-01-10T16:21:50.835Z,7.53
2023-01-10T16:24:22.425Z,7.50
2023-01-10T16:26:50.252Z,7.37
2023-01-10T16:29:17.704Z,7.23
2023-01-10T16:31:44.563Z,7.10
2023-01-10T16:34:11.226Z,7.15
2023-01-10T16:36:38.290Z,7.05
2023-01-10T16:39:12.868Z,7.01
2023-01-10T16:41:58.261Z,6.91
2023-01-10T16:44:25.045Z,6.90
2023-01-10T16:46:53.080Z,6.83
2023-01-10T16:49:20.940Z,6.72
2023-01-10T16:51:48.315Z,6.50
2023-01-10T16:54:17.668Z,6.65
2023-01-10T16:56:45.246Z,6.61
2023-01-10T16:59:13.422Z,6.29
2023-01-10T17:01:44.259Z,6.28
2023-01-10T17:04:15.684Z,6.34
2023-01-10T17:06:42.482Z,6.36
2023-01-10T17:09:38.295Z,6.40
2023-01-10T17:12:12.435Z,6.38
2023-01-10T17:14:39.507Z,6.35
2023-01-10T17:17:06.246Z,6.24
2023-01-10T17:19:33.169Z,6.35
2023-01-10T17:22:00.529Z,6.19
2023-01-10T17:24:29.617Z,6.22
2023-01-10T17:26:56.402Z,6.26
2023-01-10T17:29:23.530Z,6.28
2023-01-10T17:31:50.538Z,6.24
2023-01-10T17:34:17.735Z,6.20
2023-01-10T17:36:44.669Z,5.99
2023-01-10T17:39:11.599Z,5.97
2023-01-10T17:41:38.372Z,5.97
2023-01-10T17:44:05.375Z,5.97
2023-01-10T17:46:32.546Z,6.02
2023-01-10T17:48:59.393Z,5.98
2023-01-10T17:51:27.047Z,5.91
2023-01-10T17:53:55.445Z,5.93
2023-01-10T17:56:23.427Z,5.91
2023-01-10T17:58:51.822Z,5.98
2023-01-10T18:01:24.621Z,5.98
2023-01-10T18:03:52.837Z,5.88
2023-01-10T18:06:24.063Z,5.84
2023-01-10T18:08:51.485Z,5.89
2023-01-10T18:11:18.260Z,5.74
2023-01-10T18:13:45.161Z,5.61
2023-01-10T18:16:11.827Z,5.67
2023-01-10T18:18:39.113Z,5.68
2023-01-10T18:21:12.960Z,5.51
2023-01-10T18:23:39.999Z,5.63
2023-01-10T18:26:09.597Z,5.56
2023-01-10T18:28:42.908Z,5.38
2023-01-10T18:31:13.623Z,5.39
2023-01-10T18:33:40.775Z,5.26
2023-01-10T18:36:14.324Z,5.33
2023-01-10T18:38:41.451Z,5.31
2023-01-10T18:41:08.385Z,5.16
2023-01-10T18:43:35.496Z,5.09
2023-01-10T18:46:05.245Z,5.27
2023-01-10T18:48:32.486Z,4.88
2023-01-10T18:51:00.696Z,5.02
2023-01-10T18:53:27.706Z,4.96
2023-01-10T18:56:04.289Z,5.15
2023-01-10T18:58:36.914Z,5.04
2023-01-10T19:01:15.505Z,5.08
2023-01-10T19:03:42.840Z,4.71
2023-01-10T19:06:12.310Z,4.81
2023-01-10T19:08:39.681Z,4.71
2023-01-10T19:11:13.415Z,4.78
2023-01-10T19:13:42.143Z,4.82
2023-01-10T19:16:13.222Z,4.69
2023-01-10T19:18:40.224Z,4.55
2023-01-10T19:21:13.247Z,4.67
2023-01-10T19:23:40.964Z,4.71
2023-01-10T19:26:07.805Z,4.71
2023-01-10T19:28:34.772Z,4.72
2023-01-10T19:31:04.809Z,4.73
2023-01-10T19:33:34.658Z,4.56
2023-01-10T19:36:06.419Z,4.58
2023-01-10T19:38:33.438Z,4.66
2023-01-10T19:41:00.275Z,4.68
2023-01-10T19:43:27.320Z,4.70
2023-01-10T19:45:54.484Z,4.47
2023-01-10T19:48:23.248Z,4.53
2023-01-10T19:50:49.997Z,4.61
2023-01-10T19:53:17.628Z,4.51
2023-01-10T19:55:44.424Z,4.36
2023-01-10T19:58:11.201Z,4.45
2023-01-10T20:00:38.024Z,4.45
2023-01-10T20:03:07.607Z,4.36
2023-01-10T20:05:35.418Z,4.50
2023-01-10T20:08:03.375Z,4.64
2023-01-10T20:10:30.309Z,4.65
2023-01-10T20:12:56.958Z,4.60
2023-01-10T20:15:24.000Z,4.60
2023-01-10T20:17:50.806Z,4.49
2023-01-10T20:20:19.704Z,4.33
2023-01-10T20:22:47.745Z,4.31
2023-01-10T20:25:14.694Z,4.20
2023-01-10T20:27:41.465Z,4.42
2023-01-10T20:30:09.421Z,4.36
2023-01-10T20:32:36.363Z,4.36
2023-01-10T20:35:03.068Z,4.48
2023-01-10T20:37:29.881Z,4.38
2023-01-10T20:39:57.051Z,4.25
2023-01-10T20:42:23.779Z,4.06
2023-01-10T20:44:50.931Z,4.01
2023-01-10T20:47:17.801Z,4.07
2023-01-10T20:49:44.425Z,4.21
2023-01-10T20:52:11.364Z,4.27
2023-01-10T20:54:38.833Z,4.18
2023-01-10T20:57:05.839Z,4.09
2023-01-10T20:59:33.671Z,4.10
2023-01-10T21:02:01.109Z,4.06
2023-01-10T21:04:28.070Z,4.09
2023-01-10T21:06:54.872Z,4.05
2023-01-10T21:09:21.712Z,4.12
2023-01-10T21:12:04.120Z,4.16
2023-01-10T21:14:35.294Z,3.96
2023-01-10T21:17:01.978Z,3.78
2023-01-10T21:19:29.336Z,3.88
2023-01-10T21:21:56.166Z,3.95
2023-01-10T21:24:24.916Z,4.03
2023-01-10T21:26:51.638Z,3.91
2023-01-10T21:29:18.527Z,3.84
2023-01-10T21:31:45.275Z,3.86
2023-01-10T21:34:12.063Z,3.93
2023-01-10T21:36:38.819Z,3.95
2023-01-10T21:39:05.650Z,3.81
2023-01-10T21:41:50.972Z,3.64
2023-01-10T21:44:17.671Z,3.66
2023-01-10T21:46:46.760Z,3.54
2023-01-10T21:49:14.786Z,3.65
2023-01-10T21:51:41.576Z,3.71
2023-01-10T21:54:08.290Z,3.79
2023-01-10T21:56:35.033Z,3.79
2023-01-10T21:59:01.811Z,3.89
2023-01-10T22:01:28.536Z,3.80
2023-01-10T22:03:55.520Z,3.78
2023-01-10T22:06:22.226Z,3.76
2023-01-10T22:08:50.348Z,3.81
2023-01-10T22:11:17.010Z,3.86
2023-01-10T22:13:43.963Z,3.76
2023-01-10T22:16:10.974Z,3.71
2023-01-10T22:18:37.782Z,3.80
2023-01-10T22:21:04.527Z,3.88
2023-01-10T22:23:31.454Z,3.85
2023-01-10T22:26:03.771Z,3.81
2023-01-10T22:28:31.103Z,3.79
2023-01-10T22:30:58.379Z,3.78
2023-01-10T22:33:29.464Z,3.75
2023-01-10T22:35:56.198Z,3.75
2023-01-10T22:38:22.866Z,3.55
2023-01-10T22:40:49.690Z,3.60
2023-01-10T22:43:16.328Z,3.60
2023-01-10T22:45:43.235Z,3.61
2023-01-10T22:48:10.511Z,3.49
2023-01-10T22:50:37.680Z,3.37
2023-01-10T22:53:04.369Z,3.41
2023-01-10T22:55:33.848Z,3.32
2023-01-10T22:58:00.584Z,3.15
2023-01-10T23:00:27.620Z,3.40
2023-01-10T23:02:54.374Z,3.50
2023-01-10T23:05:21.018Z,3.34
2023-01-10T23:07:47.738Z,3.31
2023-01-10T23:10:28.760Z,3.41
2023-01-10T23:12:57.684Z,3.38
2023-01-10T23:15:24.654Z,3.25
2023-01-10T23:17:51.393Z,3.02
2023-01-10T23:20:18.316Z,2.89
2023-01-10T23:22:45.253Z,3.19
2023-01-10T23:25:11.979Z,3.01
2023-01-10T23:27:39.728Z,3.22
2023-01-10T23:30:08.130Z,3.15
2023-01-10T23:32:34.798Z,3.03
2023-01-10T23:35:01.608Z,3.04
2023-01-10T23:37:28.447Z,3.23
2023-01-10T23:39:55.584Z,3.06
2023-01-10T23:42:22.318Z,3.10
2023-01-10T23:44:48.922Z,3.09
2023-01-10T23:47:15.744Z,3.06
2023-01-10T23:49:42.422Z,3.22
2023-01-10T23:52:09.251Z,3.20
2023-01-10T23:54:36.478Z,3.17
2023-01-10T23:57:03.299Z,3.19
2023-01-10T23:59:30.062Z,3.18
